Time;durP1;ratioP1;P1;durP2;ratioP2;P2;SDS_P1;SDS_P2;PMS_P1;PMS_P2;Temp;Humidity;BMP_temperature;BMP_pressure;BME280_temperature;BME280_humidity;BME280_pressure;Samples;Min_cycle;Max_cycle;Signal;HPM_P1;HPM_P2
2020/12/19 00:01:01;;;;;;;119.60;44.00;;;;;;;4.24;97.54;95994.53;5000405;28;20504;-79
2020/12/19 00:03:27;;;;;;;148.63;43.37;;;;;;;4.20;96.04;95997.31;5034706;28;20477;-80
2020/12/19 00:05:54;;;;;;;98.00;38.50;;;;;;;4.12;95.38;95997.66;4999989;28;20449;-79
2020/12/19 00:08:20;;;;;;;118.67;46.47;;;;;;;4.08;96.16;95997.84;5034159;28;20507;-80
2020/12/19 00:10:47;;;;;;;178.60;51.90;;;;;;;4.03;97.66;95993.66;5034285;28;20500;-80
2020/12/19 00:13:14;;;;;;;98.00;45.03;;;;;;;3.97;97.29;95995.69;5034049;28;20492;-80
2020/12/19 00:15:40;;;;;;;115.17;47.60;;;;;;;3.92;97.19;95995.88;5033775;28;20446;-80
2020/12/19 00:18:06;;;;;;;123.80;45.33;;;;;;;3.82;96.69;95994.56;5034754;28;20460;-79
2020/12/19 00:20:33;;;;;;;101.07;45.50;;;;;;;3.69;96.42;95996.78;4998896;28;20480;-80
2020/12/19 00:22:59;;;;;;;97.33;43.57;;;;;;;3.65;97.07;96003.03;5033638;28;20520;-80
2020/12/19 00:25:26;;;;;;;83.47;42.80;;;;;;;3.66;98.38;95999.53;5034695;28;20442;-80
2020/12/19 00:27:52;;;;;;;122.90;41.93;;;;;;;3.55;97.15;95996.53;5035316;28;20439;-80
2020/12/19 00:30:19;;;;;;;95.70;42.07;;;;;;;3.49;96.97;95991.59;5035874;28;20508;-80
2020/12/19 00:32:46;;;;;;;99.50;41.23;;;;;;;3.43;97.59;95995.22;4999620;28;20528;-80
2020/12/19 00:35:12;;;;;;;116.30;46.90;;;;;;;3.35;97.31;95996.44;5034543;28;20442;-81
2020/12/19 00:37:42;;;;;;;85.90;44.00;;;;;;;3.38;97.90;95998.91;5034415;28;20504;-80
2020/12/19 00:40:10;;;;;;;134.03;45.80;;;;;;;3.38;98.26;95997.16;5033574;28;20439;-80
2020/12/19 00:42:37;;;;;;;114.10;46.07;;;;;;;3.37;98.80;96005.84;5033663;28;20442;-80
2020/12/19 00:45:05;;;;;;;92.97;44.00;;;;;;;3.42;98.47;96000.47;5033622;28;21016;-80
2020/12/19 00:47:34;;;;;;;115.40;43.70;;;;;;;3.39;98.92;95998.84;5033924;28;20453;-79
2020/12/19 00:50:00;;;;;;;69.93;39.77;;;;;;;3.43;99.14;96009.97;5033633;28;20453;-80
2020/12/19 00:52:27;;;;;;;92.00;40.67;;;;;;;3.50;99.31;96006.25;5033687;28;20450;-80
2020/12/19 00:54:53;;;;;;;102.07;41.13;;;;;;;3.51;99.10;96009.69;4998430;28;20473;-80
2020/12/19 00:57:19;;;;;;;89.53;40.40;;;;;;;3.53;98.75;96006.13;5033789;28;20496;-80
2020/12/19 00:59:46;;;;;;;73.10;36.90;;;;;;;3.61;98.62;96006.66;5033452;28;20446;-80
2020/12/19 01:02:12;;;;;;;72.70;37.30;;;;;;;3.71;99.71;96004.53;4966354;28;20453;-80
2020/12/19 01:04:39;;;;;;;82.70;36.53;;;;;;;3.82;99.77;96001.50;5033300;28;20500;-80
2020/12/19 01:07:10;;;;;;;65.83;34.17;;;;;;;3.89;98.63;95996.00;5033468;28;20438;-79
2020/12/19 01:09:37;;;;;;;83.30;35.47;;;;;;;3.97;98.46;95998.28;5033191;28;20445;-80
2020/12/19 01:12:05;;;;;;;89.40;34.20;;;;;;;4.08;98.41;95995.25;5033419;28;20511;-80
2020/12/19 01:14:32;;;;;;;79.10;36.60;;;;;;;4.07;96.79;95994.41;5033305;28;20490;-79
2020/12/19 01:16:59;;;;;;;76.50;33.80;;;;;;;4.02;97.10;95985.94;5033347;28;20821;-80
2020/12/19 01:19:25;;;;;;;79.30;34.77;;;;;;;4.07;98.03;95991.81;5033758;28;20434;-79
2020/12/19 01:21:52;;;;;;;86.83;36.63;;;;;;;4.12;98.31;95989.03;5033281;28;20496;-79
2020/12/19 01:24:19;;;;;;;94.00;37.40;;;;;;;4.08;97.57;95988.31;5033811;28;20865;-79
2020/12/19 01:26:47;;;;;;;78.77;35.37;;;;;;;4.07;96.38;95984.03;5038078;28;20451;-79
2020/12/19 01:29:13;;;;;;;90.30;37.43;;;;;;;3.97;96.67;95975.75;5033925;28;20442;-79
2020/12/19 01:31:40;;;;;;;80.27;35.43;;;;;;;3.95;97.90;95976.72;5033658;28;20458;-79
2020/12/19 01:34:06;;;;;;;81.23;36.83;;;;;;;3.96;96.85;95968.03;5014779;28;20486;-79
2020/12/19 01:36:33;;;;;;;75.87;34.50;;;;;;;3.94;98.22;95973.28;5033560;28;20438;-79
2020/12/19 01:39:00;;;;;;;87.17;36.80;;;;;;;3.94;98.06;95969.84;4998661;28;20445;-79
2020/12/19 01:41:27;;;;;;;77.40;33.63;;;;;;;3.93;97.89;95965.56;5032909;28;20456;-80
2020/12/19 01:43:54;;;;;;;71.60;34.17;;;;;;;3.92;98.15;95966.47;5033090;28;20454;-79
2020/12/19 01:46:28;;;;;;;90.77;32.97;;;;;;;3.88;97.98;95967.50;5032616;28;20446;-80
2020/12/19 01:48:56;;;;;;;81.57;31.40;;;;;;;3.78;97.61;95966.22;5033603;28;20780;-80
2020/12/19 01:51:23;;;;;;;95.90;35.20;;;;;;;3.61;98.39;95962.53;5033072;28;20942;-78
2020/12/19 01:53:50;;;;;;;81.57;32.47;;;;;;;3.40;99.13;95973.75;5032932;28;20576;-79
2020/12/19 01:56:30;;;;;;;68.27;29.47;;;;;;;3.29;100.00;95974.19;5033120;28;20477;-79
2020/12/19 01:58:57;;;;;;;67.70;31.67;;;;;;;3.31;100.00;95968.94;5032860;28;20478;-79
2020/12/19 02:01:28;;;;;;;96.90;32.40;;;;;;;3.25;100.00;95976.97;5033044;28;20521;-79
2020/12/19 02:03:55;;;;;;;105.40;32.90;;;;;;;3.23;100.00;95969.25;5032896;28;20446;-79
2020/12/19 02:06:24;;;;;;;67.33;30.93;;;;;;;3.23;100.00;95974.44;5032526;28;20869;-79
2020/12/19 02:08:52;;;;;;;84.57;33.13;;;;;;;3.26;100.00;95976.91;4998210;28;20438;-79
2020/12/19 02:11:20;;;;;;;57.27;27.83;;;;;;;3.27;100.00;95975.16;5032474;28;20434;-79
2020/12/19 02:13:46;;;;;;;50.83;26.60;;;;;;;3.19;100.00;95979.81;5032619;28;20500;-79
2020/12/19 02:16:17;;;;;;;70.67;25.97;;;;;;;3.19;100.00;95975.47;5032032;28;20454;-79
2020/12/19 02:18:43;;;;;;;92.50;27.03;;;;;;;3.27;100.00;95977.75;5033038;28;20466;-77
2020/12/19 02:21:10;;;;;;;45.97;24.47;;;;;;;3.26;100.00;95982.09;5032287;28;20943;-79
2020/12/19 02:23:37;;;;;;;55.50;25.40;;;;;;;3.31;100.00;95966.34;5032159;28;20490;-80
2020/12/19 02:26:04;;;;;;;54.60;24.80;;;;;;;3.36;100.00;95972.19;5032540;28;20450;-79
2020/12/19 02:28:30;;;;;;;48.50;24.90;;;;;;;3.35;100.00;95968.75;5032428;28;20449;-79
2020/12/19 02:30:57;;;;;;;55.43;24.77;;;;;;;3.37;100.00;95973.88;5032395;28;20450;-79
2020/12/19 02:33:23;;;;;;;49.03;24.43;;;;;;;3.32;100.00;95978.41;5032258;28;20486;-79
2020/12/19 02:35:49;;;;;;;50.23;23.63;;;;;;;3.26;100.00;95973.47;5032194;28;20500;-79
2020/12/19 02:38:16;;;;;;;47.73;25.07;;;;;;;3.16;100.00;95966.94;5032233;28;21026;-79
2020/12/19 02:40:43;;;;;;;55.33;22.40;;;;;;;3.07;100.00;95963.78;5032153;28;20919;-79
2020/12/19 02:43:09;;;;;;;48.30;25.30;;;;;;;2.97;100.00;95959.88;5032289;28;20446;-79
2020/12/19 02:45:36;;;;;;;53.57;25.83;;;;;;;3.09;100.00;95961.97;5032940;28;20450;-79
2020/12/19 02:48:02;;;;;;;57.80;24.30;;;;;;;3.22;100.00;95969.31;5032492;28;20438;-79
2020/12/19 02:50:28;;;;;;;74.90;23.30;;;;;;;3.12;100.00;95966.19;5032465;28;21010;-79
2020/12/19 02:52:54;;;;;;;48.17;24.50;;;;;;;3.03;100.00;95962.22;5032745;28;20803;-79
2020/12/19 02:55:21;;;;;;;64.50;26.90;;;;;;;3.09;100.00;95964.56;5032849;28;20443;-79
2020/12/19 02:57:48;;;;;;;49.20;24.57;;;;;;;3.13;100.00;95954.09;5033076;28;20457;-79
2020/12/19 03:00:14;;;;;;;52.20;23.00;;;;;;;3.10;100.00;95961.06;5036858;28;20450;-79
2020/12/19 03:02:41;;;;;;;81.10;25.20;;;;;;;3.14;100.00;95954.03;5036196;28;20954;-78
2020/12/19 03:05:07;;;;;;;67.57;27.73;;;;;;;3.17;100.00;95958.25;5001332;28;20865;-79
2020/12/19 03:07:33;;;;;;;45.43;24.63;;;;;;;3.13;100.00;95969.63;5035811;28;20450;-80
2020/12/19 03:10:00;;;;;;;60.20;21.40;;;;;;;3.08;100.00;95975.84;5035787;28;20464;-79
2020/12/19 03:12:26;;;;;;;44.50;22.00;;;;;;;2.91;100.00;95960.09;5035137;28;20452;-79
2020/12/19 03:14:53;;;;;;;44.57;22.87;;;;;;;3.02;100.00;95973.50;5035318;28;20493;-79
2020/12/19 03:17:20;;;;;;;54.10;22.13;;;;;;;2.98;100.00;95971.94;5000351;28;20438;-79
2020/12/19 03:19:46;;;;;;;58.83;22.63;;;;;;;2.88;100.00;95967.97;5034887;28;20454;-79
2020/12/19 03:22:12;;;;;;;55.87;22.00;;;;;;;2.77;100.00;95967.53;5035068;28;20442;-79
2020/12/19 03:24:39;;;;;;;48.57;23.83;;;;;;;2.70;100.00;95969.53;5034758;28;20474;-79
2020/12/19 03:27:05;;;;;;;52.60;21.40;;;;;;;2.66;100.00;95967.09;5034887;28;20968;-79
2020/12/19 03:29:32;;;;;;;59.33;23.30;;;;;;;2.66;100.00;95969.69;5034774;28;20449;-79
2020/12/19 03:31:59;;;;;;;46.27;21.93;;;;;;;2.67;100.00;95967.03;5034818;28;20458;-79
2020/12/19 03:34:25;;;;;;;48.90;22.43;;;;;;;2.78;100.00;95964.88;5034669;28;20539;-79
2020/12/19 03:36:51;;;;;;;51.57;22.60;;;;;;;2.83;100.00;95967.31;5034610;28;20449;-79
2020/12/19 03:39:18;;;;;;;38.60;21.73;;;;;;;2.91;100.00;95970.47;5034930;28;20438;-79
2020/12/19 03:41:44;;;;;;;39.90;20.90;;;;;;;2.77;100.00;95967.53;5034605;28;20457;-79
2020/12/19 03:44:10;;;;;;;60.47;22.33;;;;;;;2.68;100.00;95962.72;5034826;28;20508;-79
2020/12/19 03:46:37;;;;;;;46.00;23.77;;;;;;;2.61;100.00;95966.44;4999491;28;20447;-79
2020/12/19 03:49:04;;;;;;;42.03;21.53;;;;;;;2.80;100.00;95973.44;5034599;28;20832;-79
2020/12/19 03:51:30;;;;;;;45.27;22.97;;;;;;;2.98;100.00;95971.94;5034710;28;20459;-79
2020/12/19 03:53:57;;;;;;;52.80;25.70;;;;;;;3.15;100.00;95967.81;5034609;28;20588;-79
2020/12/19 03:56:23;;;;;;;51.57;25.50;;;;;;;3.25;100.00;95971.78;5034406;28;20920;-79
2020/12/19 03:58:50;;;;;;;52.07;23.60;;;;;;;3.28;100.00;95969.91;5034541;28;20446;-79
2020/12/19 04:01:16;;;;;;;57.87;27.07;;;;;;;3.32;100.00;95971.47;5034384;28;20446;-79
2020/12/19 04:03:42;;;;;;;53.80;23.17;;;;;;;3.40;100.00;95978.94;5034596;28;20861;-79
2020/12/19 04:06:09;;;;;;;45.93;21.43;;;;;;;3.47;100.00;95975.22;5034110;28;20446;-79
2020/12/19 04:08:36;;;;;;;96.57;44.90;;;;;;;3.50;100.00;95974.25;5034219;28;20995;-79
2020/12/19 04:11:05;;;;;;;87.20;39.77;;;;;;;3.52;100.00;95973.28;5032876;28;20469;-79
2020/12/19 04:13:32;;;;;;;67.03;29.53;;;;;;;3.57;100.00;95973.09;5034228;28;20482;-79
2020/12/19 04:15:58;;;;;;;58.60;25.30;;;;;;;3.43;100.00;95973.63;5033968;28;20453;-79
2020/12/19 04:18:25;;;;;;;50.53;23.10;;;;;;;3.55;100.00;95980.09;5034089;28;20485;-79
2020/12/19 04:20:52;;;;;;;52.10;24.97;;;;;;;3.50;100.00;95974.25;5034106;28;20561;-79
2020/12/19 04:23:19;;;;;;;67.10;27.87;;;;;;;3.47;100.00;95977.81;4999098;28;20834;-79
2020/12/19 04:25:45;;;;;;;55.63;24.40;;;;;;;3.46;100.00;95975.25;5033749;28;20934;-79
2020/12/19 04:28:12;;;;;;;54.70;25.80;;;;;;;3.52;100.00;95975.88;5033759;28;20454;-79
2020/12/19 04:30:38;;;;;;;67.80;27.30;;;;;;;3.60;100.00;95979.00;5033339;28;20456;-79
2020/12/19 04:33:05;;;;;;;47.77;22.23;;;;;;;3.54;100.00;95983.59;5033519;28;20454;-79
2020/12/19 04:35:31;;;;;;;55.83;24.70;;;;;;;3.58;100.00;95986.00;5033707;28;20453;-79
2020/12/19 04:37:57;;;;;;;56.63;23.87;;;;;;;3.50;100.00;95979.44;5033448;28;20459;-79
2020/12/19 04:40:25;;;;;;;60.80;21.30;;;;;;;3.42;100.00;95990.09;5033489;28;20465;-79
2020/12/19 04:42:51;;;;;;;54.97;23.17;;;;;;;3.42;100.00;95988.34;5033356;28;20457;-79
2020/12/19 04:45:18;;;;;;;46.30;22.77;;;;;;;3.41;100.00;95986.66;5033364;28;20458;-79
2020/12/19 04:47:44;;;;;;;61.27;27.20;;;;;;;3.48;100.00;95987.28;5033332;28;20851;-79
2020/12/19 04:50:13;;;;;;;48.60;23.60;;;;;;;3.48;100.00;95987.28;5033434;28;20438;-79
2020/12/19 04:52:39;;;;;;;52.37;23.27;;;;;;;3.48;100.00;95984.69;5032938;28;20504;-79
2020/12/19 04:55:06;;;;;;;55.80;25.47;;;;;;;3.52;100.00;95981.06;5033187;28;20490;-79
2020/12/19 04:57:34;;;;;;;51.70;23.03;;;;;;;3.65;100.00;95978.81;5033216;28;20809;-79
2020/12/19 05:00:00;;;;;;;54.20;25.63;;;;;;;3.73;100.00;95987.13;5032946;28;20819;-79
2020/12/19 05:02:27;;;;;;;57.13;24.77;;;;;;;3.77;100.00;95982.69;5033348;28;20449;-79
2020/12/19 05:04:53;;;;;;;55.17;24.60;;;;;;;3.58;100.00;95987.75;5032803;28;20490;-79
2020/12/19 05:07:20;;;;;;;49.77;21.60;;;;;;;3.66;100.00;95986.53;5032791;28;20446;-79
2020/12/19 05:09:46;;;;;;;59.70;26.23;;;;;;;3.67;100.00;95988.22;5032821;28;20817;-79
2020/12/19 05:12:13;;;;;;;64.23;22.77;;;;;;;3.53;100.00;95990.53;5032846;28;20966;-80
2020/12/19 05:14:41;;;;;;;55.57;21.93;;;;;;;3.55;100.00;95998.28;5032898;28;20486;-79
2020/12/19 05:17:08;;;;;;;47.97;20.77;;;;;;;3.55;100.00;96008.66;5032707;28;20449;-79
2020/12/19 05:19:34;;;;;;;57.73;24.50;;;;;;;3.49;100.00;95998.53;5032749;28;20454;-79
2020/12/19 05:22:01;;;;;;;75.10;25.77;;;;;;;3.55;100.00;96009.50;5032531;28;20443;-79
2020/12/19 05:24:29;;;;;;;53.90;23.97;;;;;;;3.62;100.00;96005.75;5032522;28;20489;-79
2020/12/19 05:26:55;;;;;;;71.77;26.77;;;;;;;3.62;100.00;96007.50;5032922;28;20965;-79
2020/12/19 05:29:22;;;;;;;48.60;22.80;;;;;;;3.66;100.00;96002.13;5032780;28;20442;-79
2020/12/19 05:31:55;;;;;;;56.60;26.70;;;;;;;3.72;100.00;96008.81;5032649;28;20506;-79
2020/12/19 05:34:23;;;;;;;66.23;26.17;;;;;;;3.76;100.00;96006.94;5032702;28;20485;-79
2020/12/19 05:36:51;;;;;;;53.30;22.97;;;;;;;3.80;100.00;96003.31;5032593;28;20446;-81
2020/12/19 05:39:18;;;;;;;58.47;25.77;;;;;;;3.83;100.00;96008.41;5032747;28;20513;-79
2020/12/19 05:41:45;;;;;;;50.63;25.30;;;;;;;3.85;100.00;96012.63;5032701;28;20442;-78
2020/12/19 05:44:12;;;;;;;56.30;27.67;;;;;;;3.96;100.00;96012.16;5031601;28;20446;-83
2020/12/19 05:46:39;;;;;;;61.70;25.33;;;;;;;4.08;100.00;96014.28;5032406;28;20212;-80
2020/12/19 05:49:08;;;;;;;52.73;25.07;;;;;;;4.16;100.00;96008.75;5032357;28;20444;-79
2020/12/19 05:51:37;;;;;;;44.07;22.50;;;;;;;4.20;100.00;96013.75;5032466;28;20492;-77
2020/12/19 05:54:05;;;;;;;49.67;22.20;;;;;;;4.24;99.31;96015.31;5032146;28;20993;-78
2020/12/19 05:56:34;;;;;;;52.90;25.50;;;;;;;4.27;98.15;96020.38;5032409;28;20549;-78
2020/12/19 05:59:02;;;;;;;44.77;20.47;;;;;;;4.26;98.73;96018.69;5032210;28;20477;-78
2020/12/19 06:01:30;;;;;;;56.53;23.40;;;;;;;4.12;98.74;96009.81;5032107;28;20450;-78
2020/12/19 06:04:02;;;;;;;50.93;22.40;;;;;;;4.06;98.80;96013.50;5032571;28;20457;-79
2020/12/19 06:06:31;;;;;;;74.87;24.50;;;;;;;4.05;98.70;96019.59;5032239;28;20446;-79
2020/12/19 06:08:59;;;;;;;64.53;25.87;;;;;;;4.04;98.32;96017.88;4997750;28;20483;-78
2020/12/19 06:11:28;;;;;;;54.37;25.70;;;;;;;3.96;98.07;96025.16;5032238;28;20442;-79
2020/12/19 06:13:57;;;;;;;62.77;24.73;;;;;;;3.96;98.36;96027.75;5032012;28;20481;-79
2020/12/19 06:16:24;;;;;;;52.10;21.83;;;;;;;3.82;98.69;96030.06;5032359;28;20834;-79
2020/12/19 06:19:11;;;;;;;53.30;20.40;;;;;;;3.61;99.88;96029.16;5032439;28;20457;-78
2020/12/19 06:21:39;;;;;;;66.70;25.80;;;;;;;3.68;100.00;96026.25;5031864;28;20450;-79
2020/12/19 06:24:05;;;;;;;53.37;24.07;;;;;;;3.47;100.00;96029.72;5032377;28;20466;-78
2020/12/19 06:26:36;;;;;;;52.50;23.17;;;;;;;3.58;100.00;96031.88;5031943;28;20453;-78
2020/12/19 06:29:04;;;;;;;60.87;23.10;;;;;;;3.46;100.00;96033.19;5031906;28;20450;-78
2020/12/19 06:31:31;;;;;;;55.63;24.80;;;;;;;3.49;100.00;96030.50;5031731;28;20968;-77
2020/12/19 06:34:04;;;;;;;55.17;23.13;;;;;;;3.60;100.00;96033.50;5033904;28;21000;-78
2020/12/19 06:36:32;;;;;;;65.17;21.17;;;;;;;3.57;100.00;96037.97;5035612;28;20551;-79
2020/12/19 06:39:09;;;;;;;51.57;23.17;;;;;;;3.62;100.00;96036.03;5017330;28;20434;-78
2020/12/19 06:41:44;;;;;;;76.83;30.03;;;;;;;3.56;100.00;96042.31;5035757;28;20442;-78
2020/12/19 06:44:12;;;;;;;108.17;35.13;;;;;;;3.42;100.00;96040.25;5016791;28;20450;-78
2020/12/19 06:46:39;;;;;;;65.80;31.90;;;;;;;3.51;100.00;96040.81;5035551;28;20453;-78
2020/12/19 06:49:29;;;;;;;51.07;23.00;;;;;;;3.51;100.00;96044.25;5035674;28;20446;-78
2020/12/19 06:52:00;;;;;;;46.83;23.30;;;;;;;3.46;100.00;96035.78;5035750;28;20503;-78
2020/12/19 06:54:31;;;;;;;56.83;27.87;;;;;;;3.52;100.00;96040.75;5035547;28;20908;-78
2020/12/19 06:56:57;;;;;;;171.40;66.50;;;;;;;3.57;100.00;96036.22;5035567;28;20438;-78
2020/12/19 06:59:25;;;;;;;322.40;117.97;;;;;;;3.63;100.00;96046.34;5035269;28;20450;-78
2020/12/19 07:01:52;;;;;;;177.77;66.30;;;;;;;3.32;100.00;96044.09;5035441;28;20450;-78
2020/12/19 07:04:32;;;;;;;146.47;60.13;;;;;;;3.45;100.00;96044.47;5035020;28;20456;-78
2020/12/19 07:07:03;;;;;;;128.83;42.93;;;;;;;3.51;100.00;96043.41;5031976;28;20446;-78
2020/12/19 07:09:31;;;;;;;81.37;30.13;;;;;;;3.41;100.00;96043.75;5035213;28;20448;-79
2020/12/19 07:12:00;;;;;;;67.70;27.90;;;;;;;3.39;100.00;96055.94;5033484;28;20521;-77
2020/12/19 07:14:39;;;;;;;60.80;25.27;;;;;;;3.28;100.00;96047.72;5034912;28;20474;-76
2020/12/19 07:17:16;;;;;;;57.20;23.53;;;;;;;3.27;100.00;96051.22;5034569;28;20442;-78
2020/12/19 07:19:43;;;;;;;55.33;24.83;;;;;;;3.31;100.00;96049.34;5034814;28;20446;-77
2020/12/19 07:22:09;;;;;;;61.03;23.70;;;;;;;3.12;100.00;96049.19;5034685;28;20482;-78
2020/12/19 07:24:36;;;;;;;52.67;24.77;;;;;;;3.34;100.00;96057.84;5034506;28;20477;-77
2020/12/19 07:27:03;;;;;;;71.97;26.37;;;;;;;3.37;100.00;96051.69;5034904;28;20453;-78
2020/12/19 07:29:30;;;;;;;54.63;24.90;;;;;;;3.49;100.00;96047.81;5034618;28;20951;-77
2020/12/19 07:31:59;;;;;;;62.13;26.50;;;;;;;3.62;100.00;96057.66;5034679;28;20777;-77
2020/12/19 07:34:26;;;;;;;67.30;26.53;;;;;;;3.76;100.00;96053.66;5034440;28;20563;-77
2020/12/19 07:36:54;;;;;;;56.47;26.73;;;;;;;3.86;100.00;96055.84;5034359;28;20446;-77
2020/12/19 07:39:22;;;;;;;72.63;27.73;;;;;;;3.95;100.00;96049.44;5034638;28;20453;-78
2020/12/19 07:42:05;;;;;;;61.77;29.23;;;;;;;4.03;100.00;96052.56;5035054;28;20465;-82
2020/12/19 07:44:31;;;;;;;60.40;27.23;;;;;;;4.10;100.00;96048.81;5034899;28;20453;-80
2020/12/19 07:47:00;;;;;;;59.03;26.90;;;;;;;4.13;100.00;96058.25;5034654;28;20450;-82
2020/12/19 07:49:32;;;;;;;55.40;25.93;;;;;;;4.19;100.00;96058.81;5035354;28;20910;-80
2020/12/19 07:52:11;;;;;;;53.77;23.70;;;;;;;4.28;100.00;96053.25;5034637;28;20473;-78
2020/12/19 07:54:38;;;;;;;68.77;28.90;;;;;;;4.37;100.00;96061.59;5034115;28;20824;-80
2020/12/19 07:57:06;;;;;;;54.10;27.80;;;;;;;4.42;99.91;96063.06;5034550;28;20857;-79
2020/12/19 07:59:33;;;;;;;70.03;30.13;;;;;;;4.47;99.72;96062.88;5034598;28;20454;-78
2020/12/19 08:02:04;;;;;;;54.57;26.63;;;;;;;4.47;98.57;96057.69;5034233;28;20535;-79
2020/12/19 08:04:32;;;;;;;69.03;28.07;;;;;;;4.47;98.64;96058.53;5034363;28;20446;-79
2020/12/19 08:06:59;;;;;;;62.97;27.20;;;;;;;4.35;98.17;96059.91;5034364;28;20458;-80
2020/12/19 08:09:26;;;;;;;64.17;27.70;;;;;;;4.31;98.59;96055.72;5034064;28;20446;-78
2020/12/19 08:11:53;;;;;;;67.90;26.37;;;;;;;4.28;99.74;96061.03;5034603;28;20507;-77
2020/12/19 08:14:22;;;;;;;61.50;29.33;;;;;;;4.31;100.00;96063.50;5033952;28;20489;-78
2020/12/19 08:16:49;;;;;;;69.80;32.57;;;;;;;4.39;99.82;96057.16;5034043;28;21162;-77
2020/12/19 08:19:22;;;;;;;82.30;34.20;;;;;;;4.44;100.00;96063.00;5034265;28;20511;-77
2020/12/19 08:21:50;;;;;;;91.87;43.13;;;;;;;4.44;100.00;96058.66;5034081;28;20482;-79
2020/12/19 08:24:17;;;;;;;76.53;33.73;;;;;;;4.45;100.00;96059.50;5033498;28;20982;-79
2020/12/19 08:26:43;;;;;;;76.70;31.47;;;;;;;4.43;100.00;96066.50;5033599;28;20450;-83
2020/12/19 08:29:10;;;;;;;70.87;30.60;;;;;;;4.30;98.92;96063.56;5033321;28;20999;-82
2020/12/19 08:31:38;;;;;;;69.20;29.40;;;;;;;4.35;98.75;96072.88;5031282;28;20541;-83
2020/12/19 08:34:12;;;;;;;65.53;34.00;;;;;;;4.37;99.08;96070.22;5035273;28;20484;-83
2020/12/19 08:36:46;;;;;;;57.90;29.60;;;;;;;4.44;99.09;96070.81;4995659;28;20483;-83
2020/12/19 08:39:13;;;;;;;58.13;32.53;;;;;;;4.47;99.29;96061.13;5014707;28;20530;-85
2020/12/19 08:41:40;;;;;;;71.10;29.57;;;;;;;4.47;98.39;96065.47;5014012;28;20447;-85
2020/12/19 08:44:06;;;;;;;63.33;30.70;;;;;;;4.52;99.34;96066.97;5014233;28;20467;-86
2020/12/19 08:46:34;;;;;;;60.13;28.60;;;;;;;4.53;98.50;96067.81;5014634;28;20450;-83
2020/12/19 08:49:02;;;;;;;64.27;30.90;;;;;;;4.47;98.62;96060.28;5014495;28;20462;-84
2020/12/19 08:51:29;;;;;;;59.43;29.20;;;;;;;4.47;98.90;96063.72;4995680;28;20443;-83
2020/12/19 08:54:10;;;;;;;57.17;28.70;;;;;;;4.50;99.04;96063.59;5014962;28;20486;-83
2020/12/19 08:56:37;;;;;;;66.87;33.33;;;;;;;4.57;99.31;96056.38;5013698;28;20478;-83
2020/12/19 08:59:03;;;;;;;66.13;30.33;;;;;;;4.60;99.45;96053.63;5013892;28;20462;-82
2020/12/19 09:01:31;;;;;;;66.60;32.80;;;;;;;4.71;98.78;96053.19;5016045;28;20533;-85
2020/12/19 09:04:09;;;;;;;59.53;29.37;;;;;;;4.72;97.89;96053.13;5014640;28;20515;-84
2020/12/19 09:06:46;;;;;;;68.03;31.73;;;;;;;4.78;97.72;96042.47;5014686;28;20521;-86
2020/12/19 09:09:19;;;;;;;73.97;31.60;;;;;;;4.87;98.08;96046.41;5015135;28;20819;-83
2020/12/19 09:11:46;;;;;;;61.40;30.57;;;;;;;4.93;97.70;96044.41;5013606;28;20474;-85
2020/12/19 09:14:14;;;;;;;76.73;38.27;;;;;;;5.00;96.81;96038.91;5014475;28;20489;-85
2020/12/19 09:16:48;;;;;;;63.47;32.97;;;;;;;5.03;96.21;96036.19;5014069;28;20477;-86
2020/12/19 09:19:17;;;;;;;63.10;32.03;;;;;;;5.11;95.76;96031.47;5014757;28;20438;-84
2020/12/19 09:21:53;;;;;;;60.40;28.97;;;;;;;5.13;96.00;96029.63;5013822;28;20452;-86
2020/12/19 09:24:20;;;;;;;47.80;28.07;;;;;;;5.20;96.45;96024.09;5013456;28;20486;-85
2020/12/19 09:26:46;;;;;;;56.20;31.00;;;;;;;5.27;94.87;96025.50;5023941;28;20450;-83
2020/12/19 09:29:13;;;;;;;65.40;29.77;;;;;;;5.32;95.16;96020.09;5033341;28;20541;-83
2020/12/19 09:31:39;;;;;;;58.87;29.53;;;;;;;5.41;94.29;96016.22;5033703;28;20443;-85
2020/12/19 09:34:05;;;;;;;60.70;31.60;;;;;;;5.43;94.99;96015.22;5033311;28;20501;-84
2020/12/19 09:36:33;;;;;;;64.00;30.03;;;;;;;5.30;93.87;96016.72;5033310;28;20458;-85
2020/12/19 09:38:59;;;;;;;61.97;30.10;;;;;;;5.28;95.60;96005.53;5036476;28;20508;-85
2020/12/19 09:41:26;;;;;;;50.93;27.60;;;;;;;5.31;96.16;96012.34;5035250;28;20840;-83
2020/12/19 09:43:55;;;;;;;66.77;33.23;;;;;;;5.36;96.80;96011.22;5035623;28;20450;-84
2020/12/19 09:46:21;;;;;;;78.40;36.13;;;;;;;5.31;96.21;96004.53;5033576;28;20478;-83
2020/12/19 09:48:47;;;;;;;65.73;34.53;;;;;;;5.28;96.21;96010.75;5033657;28;20446;-80
2020/12/19 09:51:14;;;;;;;63.33;31.13;;;;;;;5.13;96.87;96001.03;5033032;28;20888;-81
2020/12/19 09:53:42;;;;;;;57.53;28.97;;;;;;;5.15;96.57;96004.41;5032796;28;20509;-82
2020/12/19 09:56:08;;;;;;;56.00;25.80;;;;;;;4.91;96.67;96001.97;5034676;28;20442;-81
2020/12/19 09:58:35;;;;;;;58.23;28.73;;;;;;;5.03;97.95;96002.34;5033440;28;20867;-83
2020/12/19 10:01:01;;;;;;;57.87;26.70;;;;;;;4.97;98.64;95996.53;5033733;28;20450;-80
2020/12/19 10:03:28;;;;;;;57.87;28.90;;;;;;;5.07;98.80;95991.75;5033808;28;20457;-83
2020/12/19 10:05:54;;;;;;;56.40;28.80;;;;;;;5.19;98.94;95987.72;5034141;28;20456;-92
2020/12/19 10:08:21;;;;;;;52.00;26.30;;;;;;;5.16;98.05;95978.31;5035337;28;20468;-83
2020/12/19 10:10:48;;;;;;;64.87;33.53;;;;;;;5.13;97.85;95977.59;5037136;28;20442;-80
2020/12/19 10:13:15;;;;;;;57.53;31.10;;;;;;;5.19;97.33;95985.13;5037534;28;20458;-81
2020/12/19 10:15:41;;;;;;;56.00;28.43;;;;;;;5.16;98.17;95987.88;5038464;28;20474;-80
2020/12/19 10:18:08;;;;;;;54.90;28.77;;;;;;;4.89;98.05;95988.22;5036396;28;20476;-81
2020/12/19 10:20:34;;;;;;;65.43;30.33;;;;;;;4.92;98.38;95988.09;5036363;28;20445;-81
2020/12/19 10:23:01;;;;;;;57.77;27.70;;;;;;;4.94;99.01;95970.66;5036307;28;20523;-81
2020/12/19 10:25:27;;;;;;;64.10;31.20;;;;;;;5.04;99.71;95975.44;5036470;28;20456;-82
2020/12/19 10:27:54;;;;;;;63.13;31.07;;;;;;;5.00;99.39;95969.53;5036104;28;20449;-80
2020/12/19 10:30:20;;;;;;;68.20;31.20;;;;;;;5.12;99.68;95968.97;5035586;28;20529;-78
2020/12/19 10:32:47;;;;;;;67.37;31.37;;;;;;;4.90;99.57;95969.09;5036124;28;20444;-79
2020/12/19 10:35:13;;;;;;;64.30;31.13;;;;;;;5.03;98.87;95963.34;5036030;28;20827;-81
2020/12/19 10:37:40;;;;;;;64.77;34.13;;;;;;;5.08;99.67;95970.03;5035835;28;20446;-81
2020/12/19 10:40:06;;;;;;;66.50;32.80;;;;;;;5.15;100.00;95957.56;5035858;28;20454;-83
2020/12/19 10:42:33;;;;;;;69.93;32.90;;;;;;;5.00;98.96;95960.88;5035622;28;20484;-80
2020/12/19 10:45:00;;;;;;;60.57;30.70;;;;;;;4.96;99.28;95955.00;5035997;28;20508;-81
2020/12/19 10:47:27;;;;;;;71.73;33.73;;;;;;;4.98;99.32;95950.56;5035697;28;20443;-80
2020/12/19 10:49:53;;;;;;;68.70;33.60;;;;;;;4.99;98.46;95954.84;5036358;28;20446;-83
2020/12/19 10:52:20;;;;;;;56.67;32.77;;;;;;;5.04;98.81;95957.22;5036818;28;20442;-86
2020/12/19 10:54:46;;;;;;;56.47;29.80;;;;;;;4.96;99.56;95952.38;5037330;28;20478;-86
2020/12/19 10:57:12;;;;;;;68.77;31.30;;;;;;;5.08;99.21;95944.00;5038446;28;20855;-86
2020/12/19 10:59:39;;;;;;;56.40;30.17;;;;;;;5.10;99.05;95936.13;5038075;28;20488;-86
2020/12/19 11:02:06;;;;;;;56.40;31.07;;;;;;;5.19;98.26;95946.09;5039889;28;20449;-89
2020/12/19 11:04:33;;;;;;;69.27;33.37;;;;;;;5.29;98.28;95942.16;5037094;28;20500;-85
2020/12/19 11:07:00;;;;;;;78.60;33.50;;;;;;;5.26;97.69;95940.56;5037000;28;20450;-85
2020/12/19 11:09:26;;;;;;;82.70;37.90;;;;;;;5.22;96.93;95935.56;5036746;28;20449;-83
2020/12/19 11:11:54;;;;;;;73.57;33.10;;;;;;;5.21;97.84;95937.34;5035406;28;20454;-82
2020/12/19 11:14:20;;;;;;;78.53;39.00;;;;;;;5.05;98.04;95932.91;5035048;28;20508;-82
2020/12/19 11:16:47;;;;;;;75.90;33.20;;;;;;;4.96;98.93;95931.59;5036590;28;20458;-79
2020/12/19 11:19:14;;;;;;;75.10;38.03;;;;;;;4.86;99.46;95920.72;5016590;28;20487;-78
2020/12/19 11:21:42;;;;;;;81.27;36.80;;;;;;;5.01;98.79;95923.56;5035571;28;20521;-79